createdAt,value
2023-05-02T00:01:13.775Z,97646.88
2023-05-02T00:03:40.751Z,97614.66
2023-05-02T00:06:07.608Z,97649.06
2023-05-02T00:08:34.610Z,97647.25
2023-05-02T00:11:01.417Z,97654.22
2023-05-02T00:13:28.195Z,97656.13
2023-05-02T00:15:56.378Z,97655.63
2023-05-02T00:18:23.177Z,97653.44
2023-05-02T00:20:50.076Z,97653.19
2023-05-02T00:23:16.956Z,97659.88
2023-05-02T00:25:44.369Z,97645.84
2023-05-02T00:28:11.206Z,97658.53
2023-05-02T00:30:42.113Z,97655.53
2023-05-02T00:33:10.367Z,97653.16
2023-05-02T00:35:37.196Z,97649.06
2023-05-02T00:38:04.008Z,97655.84
2023-05-02T00:40:30.805Z,97650.44
2023-05-02T00:42:57.604Z,97649.34
2023-05-02T00:45:24.442Z,97653.44
2023-05-02T00:47:51.267Z,97662.34
2023-05-02T00:50:19.475Z,97658.31
2023-05-02T00:52:46.941Z,97656.19
2023-05-02T00:55:13.734Z,97664.06
2023-05-02T00:57:40.525Z,97663.03
2023-05-02T01:03:20.042Z,97670.00
2023-05-02T01:05:53.635Z,97667.03
2023-05-02T01:08:25.506Z,97669.22
2023-05-02T01:10:56.092Z,97671.84
2023-05-02T01:13:26.077Z,97672.91
2023-05-02T01:15:53.592Z,97675.03
2023-05-02T01:18:22.397Z,97680.44
2023-05-02T01:20:53.374Z,97676.69
2023-05-02T01:23:23.955Z,97683.72
2023-05-02T01:26:01.540Z,97680.69
2023-05-02T01:28:33.378Z,97685.84
2023-05-02T01:31:03.288Z,97690.75
2023-05-02T01:33:30.784Z,97683.47
2023-05-02T01:35:57.872Z,97691.56
2023-05-02T01:38:24.820Z,97695.34
2023-05-02T01:40:52.297Z,97688.91
2023-05-02T01:43:20.266Z,97688.94
2023-05-02T01:45:48.689Z,97693.03
2023-05-02T01:48:17.712Z,97697.63
2023-05-02T01:50:44.991Z,97700.31
2023-05-02T01:53:12.734Z,97695.72
2023-05-02T01:55:41.084Z,97697.84
2023-05-02T01:58:08.211Z,97688.91
2023-05-02T02:00:38.734Z,97696.97
2023-05-02T02:03:06.190Z,97704.22
2023-05-02T02:05:35.023Z,97698.03
2023-05-02T02:08:01.982Z,97676.34
2023-05-02T02:10:29.812Z,97709.41
2023-05-02T02:13:00.344Z,97710.22
2023-05-02T02:15:28.183Z,97710.75
2023-05-02T02:17:56.918Z,97714.56
2023-05-02T02:20:23.829Z,97722.16
2023-05-02T02:22:53.333Z,97712.94
2023-05-02T02:25:20.386Z,97711.34
2023-05-02T02:27:47.339Z,97713.81
2023-05-02T02:30:14.181Z,97712.75
2023-05-02T02:32:41.021Z,97717.38
2023-05-02T02:35:08.404Z,97721.13
2023-05-02T02:37:37.660Z,97722.72
2023-05-02T02:40:09.885Z,97721.66
2023-05-02T02:42:39.493Z,97726.25
2023-05-02T02:45:13.506Z,97730.28
2023-05-02T02:47:42.367Z,97722.94
2023-05-02T02:50:14.704Z,97720.75
2023-05-02T02:52:48.664Z,97731.84
2023-05-02T02:55:23.592Z,97726.44
2023-05-02T02:57:55.317Z,97727.53
2023-05-02T03:00:24.809Z,97725.38
2023-05-02T03:02:52.117Z,97724.00
2023-05-02T03:05:19.385Z,97731.31
2023-05-02T03:07:46.292Z,97734.00
2023-05-02T03:10:13.135Z,97735.16
2023-05-02T03:12:41.632Z,97727.28
2023-05-02T03:15:14.607Z,97736.75
2023-05-02T03:17:41.523Z,97731.16
2023-05-02T03:20:08.610Z,97737.34
2023-05-02T03:22:35.420Z,97737.34
2023-05-02T03:25:02.342Z,97743.03
2023-05-02T03:27:29.128Z,97743.84
2023-05-02T03:29:57.408Z,97745.97
2023-05-02T03:32:24.541Z,97744.88
2023-05-02T03:34:51.380Z,97740.00
2023-05-02T03:37:18.179Z,97745.06
2023-05-02T03:39:45.177Z,97739.16
2023-05-02T03:42:11.976Z,97736.19
2023-05-02T03:44:38.764Z,97738.88
2023-05-02T03:47:07.222Z,97744.28
2023-05-02T03:49:34.196Z,97739.16
2023-05-02T03:52:01.017Z,97745.66
2023-05-02T03:54:27.972Z,97750.59
2023-05-02T03:56:54.870Z,97752.97
2023-05-02T03:59:21.683Z,97754.28
2023-05-02T04:01:48.859Z,97754.06
2023-05-02T04:04:17.084Z,97765.94
2023-05-02T04:06:43.978Z,97764.59
2023-05-02T04:09:10.813Z,97774.59
2023-05-02T04:11:37.633Z,97783.22
2023-05-02T04:14:04.424Z,97774.28
2023-05-02T04:16:31.393Z,97783.22
2023-05-02T04:18:58.924Z,97791.56
2023-05-02T04:21:27.073Z,97787.81
2023-05-02T04:23:53.905Z,97791.03
2023-05-02T04:26:20.693Z,97793.19
2023-05-02T04:28:47.475Z,97795.56
2023-05-02T04:31:14.524Z,97795.56
2023-05-02T04:33:41.364Z,97800.97
2023-05-02T04:36:09.588Z,97800.69
2023-05-02T04:38:37.751Z,97799.38
2023-05-02T04:41:09.522Z,97810.16
2023-05-02T04:43:36.762Z,97809.38
2023-05-02T04:46:03.641Z,97806.41
2023-05-02T04:48:30.438Z,97809.63
2023-05-02T04:50:57.266Z,97815.31
2023-05-02T04:53:24.184Z,97816.69
2023-05-02T04:55:52.338Z,97820.25
2023-05-02T04:58:19.291Z,97827.50
2023-05-02T05:00:46.129Z,97830.72
2023-05-02T05:03:12.977Z,97825.06
2023-05-02T05:05:39.920Z,97831.28
2023-05-02T05:08:07.115Z,97829.38
2023-05-02T05:10:33.933Z,97834.50
2023-05-02T05:13:02.113Z,97832.28
2023-05-02T05:15:28.919Z,97832.28
2023-05-02T05:17:55.755Z,97839.03
2023-05-02T05:20:22.627Z,97842.28
2023-05-02T05:22:49.483Z,97838.00
2023-05-02T05:25:16.260Z,97831.84
2023-05-02T05:27:43.058Z,97850.38
2023-05-02T05:30:11.688Z,97849.06
2023-05-02T05:32:38.615Z,97848.53
2023-05-02T05:35:05.779Z,97852.81
2023-05-02T05:37:32.629Z,97849.84
2023-05-02T05:39:59.897Z,97859.00
2023-05-02T05:42:26.872Z,97852.56
2023-05-02T05:44:53.726Z,97851.03
2023-05-02T05:47:22.060Z,97865.56
2023-05-02T05:49:52.286Z,97870.97
2023-05-02T05:52:19.103Z,97874.47
2023-05-02T05:54:45.885Z,97875.78
2023-05-02T05:57:12.695Z,97882.25
2023-05-02T05:59:39.605Z,97880.91
2023-05-02T06:02:06.484Z,97877.63
2023-05-02T06:04:34.709Z,97891.94
2023-05-02T06:07:01.593Z,97886.56
2023-05-02T06:09:28.409Z,97888.16
2023-05-02T06:11:55.233Z,97871.50
2023-05-02T06:14:22.058Z,97896.78
2023-05-02T06:16:48.862Z,97890.34
2023-05-02T06:19:15.658Z,97902.19
2023-05-02T06:21:43.976Z,97897.63
2023-05-02T06:24:10.779Z,97893.84
2023-05-02T06:26:37.582Z,97896.25
2023-05-02T06:29:04.461Z,97896.56
2023-05-02T06:31:31.267Z,97898.16
2023-05-02T06:33:58.074Z,97905.72
2023-05-02T06:36:25.042Z,97909.25
2023-05-02T06:38:53.210Z,97913.56
2023-05-02T06:41:20.026Z,97907.34
2023-05-02T06:43:46.826Z,97912.22
2023-05-02T06:46:13.827Z,97909.78
2023-05-02T06:48:40.721Z,97922.16
2023-05-02T06:51:07.712Z,97927.00
2023-05-02T06:53:34.533Z,97934.53
2023-05-02T06:56:02.929Z,97932.09
2023-05-02T06:58:29.989Z,97932.94
2023-05-02T07:00:56.811Z,97942.91
2023-05-02T07:03:23.712Z,97940.78
2023-05-02T07:05:50.559Z,97950.47
2023-05-02T07:08:17.337Z,97946.97
2023-05-02T07:10:44.134Z,97944.28
2023-05-02T07:13:12.392Z,97956.13
2023-05-02T07:15:39.204Z,97959.66
2023-05-02T07:18:06.039Z,97959.38
2023-05-02T07:20:32.870Z,97956.16
2023-05-02T07:22:59.657Z,97956.19
2023-05-02T07:25:26.457Z,97959.16
2023-05-02T07:27:53.532Z,97959.69
2023-05-02T07:30:21.802Z,97970.19
2023-05-02T07:32:48.623Z,97972.09
2023-05-02T07:35:15.613Z,97965.34
2023-05-02T07:37:42.422Z,97973.16
2023-05-02T07:40:09.574Z,97973.41
2023-05-02T07:42:36.576Z,97971.50
2023-05-02T07:45:03.519Z,97967.44
2023-05-02T07:47:31.712Z,97969.34
2023-05-02T07:49:58.817Z,97975.81
2023-05-02T07:52:26.054Z,97971.50
2023-05-02T07:54:52.837Z,97972.56
2023-05-02T07:57:19.670Z,97977.97
2023-05-02T07:59:46.551Z,97982.31
2023-05-02T08:02:13.394Z,97983.38
2023-05-02T08:04:41.854Z,97996.59
2023-05-02T08:07:08.762Z,97988.22
2023-05-02T08:09:35.559Z,97995.00
2023-05-02T08:12:02.556Z,97995.84
2023-05-02T08:14:29.353Z,97990.13
2023-05-02T08:16:56.154Z,97985.84
2023-05-02T08:19:23.025Z,97987.75
2023-05-02T08:21:51.378Z,97993.38
2023-05-02T08:24:18.164Z,97994.19
2023-05-02T08:26:44.974Z,97995.53
2023-05-02T08:29:11.837Z,97990.41
2023-05-02T08:31:39.003Z,97995.22
2023-05-02T08:34:05.853Z,97998.75
2023-05-02T08:36:32.679Z,97992.81
2023-05-02T08:39:00.826Z,97996.06
2023-05-02T08:41:28.925Z,97997.91
2023-05-02T08:43:56.331Z,97995.78
2023-05-02T08:46:23.552Z,98001.72
2023-05-02T08:48:51.321Z,98004.69
2023-05-02T08:53:50.535Z,98013.56
2023-05-02T08:56:18.834Z,98015.75
2023-05-02T08:58:45.681Z,98026.56
2023-05-02T09:01:14.732Z,98029.28
2023-05-02T09:03:43.228Z,98025.47
2023-05-02T09:06:11.345Z,98020.91
2023-05-02T09:08:38.999Z,98025.75
2023-05-02T09:11:06.520Z,98030.06
2023-05-02T09:13:35.781Z,98037.31
2023-05-02T09:16:03.374Z,98034.91
2023-05-02T09:18:31.377Z,98048.13
2023-05-02T09:20:58.637Z,98037.31
2023-05-02T09:23:35.239Z,98037.84
2023-05-02T09:26:02.149Z,98041.34
2023-05-02T09:28:40.042Z,98044.59
2023-05-02T09:31:07.483Z,98046.75
2023-05-02T09:33:34.389Z,98047.03
2023-05-02T09:36:01.221Z,98053.50
2023-05-02T09:38:28.007Z,98051.34
2023-05-02T09:40:55.317Z,98053.78
2023-05-02T09:43:22.360Z,98048.94
2023-05-02T09:45:57.808Z,98052.97
2023-05-02T09:48:25.067Z,98055.69
2023-05-02T09:50:53.764Z,98057.03
2023-05-02T09:53:20.651Z,98055.69
2023-05-02T09:55:47.477Z,98052.44
2023-05-02T09:58:20.769Z,98058.66
2023-05-02T10:00:47.568Z,98056.78
2023-05-02T10:03:17.056Z,98066.19
2023-05-02T10:05:44.467Z,98062.94
2023-05-02T10:08:11.751Z,98064.56
2023-05-02T10:10:39.413Z,98064.84
2023-05-02T10:13:07.718Z,98069.13
2023-05-02T10:15:37.167Z,98065.91
2023-05-02T10:18:09.070Z,98075.91
2023-05-02T10:20:38.360Z,98068.06
2023-05-02T10:23:05.509Z,98067.81
2023-05-02T10:25:33.159Z,98071.56
2023-05-02T10:28:00.139Z,98070.50
2023-05-02T10:30:27.859Z,98070.22
2023-05-02T10:32:55.074Z,98068.34
2023-05-02T10:35:23.111Z,98070.25
2023-05-02T10:37:51.508Z,98064.56
2023-05-02T10:40:18.497Z,98064.31
2023-05-02T10:42:47.029Z,98060.81
2023-05-02T10:45:30.132Z,98055.41
2023-05-02T10:48:12.078Z,98061.34
2023-05-02T10:50:45.943Z,98060.25
2023-05-02T10:53:23.635Z,98059.69
2023-05-02T10:56:05.346Z,98062.94
2023-05-02T10:58:32.179Z,98062.94
2023-05-02T11:01:13.881Z,98060.22
2023-05-02T11:03:53.420Z,98059.97
2023-05-02T11:06:20.234Z,98051.03
2023-05-02T11:08:48.479Z,98060.25
2023-05-02T11:11:33.854Z,98055.09
2023-05-02T11:14:00.721Z,98053.22
2023-05-02T11:16:27.518Z,98053.50
2023-05-02T11:19:00.875Z,98054.56
2023-05-02T11:21:28.073Z,98052.69
2023-05-02T11:24:09.761Z,98051.63
2023-05-02T11:26:37.942Z,98048.13
2023-05-02T11:29:04.753Z,98048.38
2023-05-02T11:31:46.510Z,98046.22
2023-05-02T11:34:13.457Z,98041.63
2023-05-02T11:36:40.264Z,98050.81
2023-05-02T11:39:18.265Z,98038.91
2023-05-02T11:41:46.477Z,98039.13
2023-05-02T11:44:13.269Z,98033.22
2023-05-02T11:46:41.099Z,98040.75
2023-05-02T11:49:09.764Z,98039.97
2023-05-02T11:51:37.506Z,98036.97
2023-05-02T11:54:04.545Z,98041.56
2023-05-02T11:56:31.343Z,98034.56
2023-05-02T11:58:59.765Z,98034.25
2023-05-02T12:01:26.717Z,98033.47
2023-05-02T12:04:01.406Z,98031.59
2023-05-02T12:06:28.449Z,98039.69
2023-05-02T12:09:06.119Z,98036.97
2023-05-02T12:11:33.160Z,98038.88
2023-05-02T12:14:02.065Z,98037.00
2023-05-02T12:16:29.075Z,98042.94
2023-05-02T12:18:56.518Z,98034.00
2023-05-02T12:21:23.373Z,98034.53
2023-05-02T12:23:50.257Z,98036.44
2023-05-02T12:26:17.523Z,98036.44
2023-05-02T12:28:48.222Z,98030.47
2023-05-02T12:31:16.427Z,98030.19
2023-05-02T12:33:43.543Z,98031.53
2023-05-02T12:36:11.281Z,98033.69
2023-05-02T12:38:38.112Z,98032.59
2023-05-02T12:41:05.422Z,98028.28
2023-05-02T12:43:43.266Z,98033.69
2023-05-02T12:46:10.388Z,98026.97
2023-05-02T12:48:38.612Z,98030.47
2023-05-02T12:51:05.534Z,98032.66
2023-05-02T12:53:39.046Z,98034.28
2023-05-02T12:56:06.403Z,98028.84
2023-05-02T12:58:40.553Z,98032.63
2023-05-02T13:01:08.010Z,98019.16
2023-05-02T13:03:34.982Z,98029.69
2023-05-02T13:06:03.268Z,98024.81
2023-05-02T13:08:30.128Z,98026.44
2023-05-02T13:10:56.908Z,98029.66
2023-05-02T13:13:23.780Z,98028.84
2023-05-02T13:15:50.576Z,98021.56
2023-05-02T13:18:17.532Z,98021.00
2023-05-02T13:20:44.545Z,98024.78
2023-05-02T13:23:12.733Z,98028.56
2023-05-02T13:25:39.656Z,98025.59
2023-05-02T13:28:06.468Z,97997.84
2023-05-02T13:30:33.273Z,98022.38
2023-05-02T13:33:00.213Z,98025.59
2023-05-02T13:35:27.247Z,98026.66
2023-05-02T13:37:54.051Z,98026.13
2023-05-02T13:40:22.218Z,98019.94
2023-05-02T13:42:49.066Z,98025.59
2023-05-02T13:45:16.133Z,98021.84
2023-05-02T13:47:43.061Z,98025.34
2023-05-02T13:50:10.391Z,98031.31
2023-05-02T13:52:37.180Z,98028.84
2023-05-02T13:55:04.233Z,98030.53
2023-05-02T13:57:32.432Z,98027.53
2023-05-02T13:59:59.329Z,98027.22
2023-05-02T14:02:26.309Z,98029.66
2023-05-02T14:04:53.323Z,98026.38
2023-05-02T14:07:20.123Z,98025.03
2023-05-02T14:09:46.909Z,98019.63
2023-05-02T14:12:13.723Z,98025.03
2023-05-02T14:14:41.868Z,98025.03
2023-05-02T14:17:08.656Z,98026.13
2023-05-02T14:19:35.561Z,98023.41
2023-05-02T14:22:02.386Z,98026.91
2023-05-02T14:24:29.236Z,98029.88
2023-05-02T14:26:56.080Z,98023.41
2023-05-02T14:29:22.868Z,98024.50
2023-05-02T14:31:51.041Z,98023.41
2023-05-02T14:34:17.917Z,98023.44
2023-05-02T14:36:46.618Z,97994.84
2023-05-02T14:39:13.402Z,98018.88
2023-05-02T14:41:40.250Z,98019.94
2023-05-02T14:44:07.044Z,98009.66
2023-05-02T14:46:33.874Z,98014.19
2023-05-02T14:49:02.055Z,98016.88
2023-05-02T14:51:28.954Z,98020.63
2023-05-02T14:53:55.884Z,98008.97
2023-05-02T14:56:22.755Z,98007.28
2023-05-02T14:58:49.543Z,98019.50
2023-05-02T15:01:16.770Z,98013.03
2023-05-02T15:03:57.008Z,98014.72
2023-05-02T15:06:31.815Z,98018.47
2023-05-02T15:08:58.672Z,98015.75
2023-05-02T15:11:25.451Z,98020.91
2023-05-02T15:13:52.250Z,98025.50
2023-05-02T15:16:19.140Z,98020.13
2023-05-02T15:18:46.002Z,98019.06
2023-05-02T15:21:12.936Z,98011.75
2023-05-02T15:23:41.091Z,98018.13
2023-05-02T15:26:07.960Z,98017.66
2023-05-02T15:28:34.765Z,98012.34
2023-05-02T15:31:01.733Z,98020.47
2023-05-02T15:33:28.540Z,98024.81
2023-05-02T15:35:56.023Z,98021.56
2023-05-02T15:38:22.998Z,98035.91
2023-05-02T15:40:54.938Z,98029.69
2023-05-02T15:43:21.773Z,98044.09
2023-05-02T15:45:51.928Z,98056.50
2023-05-02T15:48:18.789Z,98053.00
2023-05-02T15:50:45.598Z,98060.59
2023-05-02T15:53:12.578Z,98062.75
2023-05-02T15:55:39.379Z,98072.44
2023-05-02T15:58:07.714Z,98065.69
2023-05-02T16:00:34.561Z,98068.66
2023-05-02T16:03:03.182Z,98077.81
2023-05-02T16:05:30.659Z,98078.34
2023-05-02T16:07:57.525Z,98091.81
2023-05-02T16:10:24.362Z,98097.19
2023-05-02T16:12:51.228Z,98095.00
2023-05-02T16:15:19.806Z,98099.22
2023-05-02T16:17:46.841Z,98100.19
2023-05-02T16:20:13.636Z,98110.34
2023-05-02T16:22:42.319Z,98116.25
2023-05-02T16:25:09.157Z,98115.16
2023-05-02T16:27:35.955Z,98111.84
2023-05-02T16:30:03.105Z,98133.22
2023-05-02T16:32:31.442Z,98122.00
2023-05-02T16:34:58.264Z,98125.31
2023-05-02T16:37:25.279Z,98130.75
2023-05-02T16:39:52.143Z,98123.66
2023-05-02T16:42:19.133Z,98116.44
2023-05-02T16:44:45.983Z,98111.88
2023-05-02T16:47:12.765Z,98119.38
2023-05-02T16:49:40.900Z,98112.47
2023-05-02T16:52:07.740Z,98114.28
2023-05-02T16:54:34.521Z,98114.16
2023-05-02T16:57:01.325Z,98117.22
2023-05-02T16:59:28.238Z,98122.50
2023-05-02T17:01:55.077Z,98121.03
2023-05-02T17:04:21.888Z,98121.69
2023-05-02T17:06:50.214Z,98120.63
2023-05-02T17:09:17.017Z,98119.63
2023-05-02T17:11:43.858Z,98125.06
2023-05-02T17:14:10.761Z,98123.16
2023-05-02T17:16:37.577Z,98114.72
2023-05-02T17:19:04.405Z,98125.56
2023-05-02T17:21:31.267Z,98119.34
2023-05-02T17:23:59.629Z,98131.19
2023-05-02T17:26:26.456Z,98137.16
2023-05-02T17:28:53.298Z,98138.03
2023-05-02T17:31:20.244Z,98140.50
2023-05-02T17:33:47.042Z,98149.41
2023-05-02T17:36:14.054Z,98120.34
2023-05-02T17:38:40.844Z,98156.53
2023-05-02T17:41:08.988Z,98163.03
2023-05-02T17:43:35.795Z,98167.13
2023-05-02T17:46:06.438Z,98162.31
2023-05-02T17:48:33.277Z,98173.16
2023-05-02T17:51:00.924Z,98173.94
2023-05-02T17:53:27.720Z,98176.34
2023-05-02T17:55:54.581Z,98185.50
2023-05-02T17:58:22.989Z,98190.13
2023-05-02T18:00:49.794Z,98188.25
2023-05-02T18:03:16.663Z,98188.50
2023-05-02T18:05:43.694Z,98196.59
2023-05-02T18:08:10.485Z,98199.88
2023-05-02T18:10:37.433Z,98202.63
2023-05-02T18:13:04.437Z,98202.34
2023-05-02T18:15:32.577Z,98204.00
2023-05-02T18:17:59.400Z,98209.16
2023-05-02T18:20:26.494Z,98210.78
2023-05-02T18:22:54.959Z,98213.75
2023-05-02T18:25:21.744Z,98213.25
2023-05-02T18:27:48.610Z,98220.56
2023-05-02T18:30:15.503Z,98222.47
2023-05-02T18:32:43.700Z,98222.75
2023-05-02T18:35:10.575Z,98227.09
2023-05-02T18:37:37.399Z,98233.31
2023-05-02T18:40:04.543Z,98238.69
2023-05-02T18:42:31.383Z,98234.63
2023-05-02T18:44:58.167Z,98243.53
2023-05-02T18:47:25.050Z,98235.72
2023-05-02T18:49:53.241Z,98251.13
2023-05-02T18:52:20.083Z,98250.63
2023-05-02T18:54:46.910Z,98249.78
2023-05-02T18:57:13.893Z,98258.69
2023-05-02T18:59:40.687Z,98254.94
2023-05-02T19:02:07.474Z,98265.47
2023-05-02T19:04:34.475Z,98264.09
2023-05-02T19:07:02.635Z,98271.69
2023-05-02T19:09:29.426Z,98271.69
2023-05-02T19:11:56.270Z,98275.50
2023-05-02T19:14:23.066Z,98287.66
2023-05-02T19:16:49.855Z,98296.84
2023-05-02T19:19:16.671Z,98292.50
2023-05-02T19:21:43.488Z,98292.50
2023-05-02T19:24:11.647Z,98304.69
2023-05-02T19:26:38.471Z,98298.22
2023-05-02T19:29:05.278Z,98310.88
2023-05-02T19:31:32.116Z,98308.19
2023-05-02T19:33:58.989Z,98305.75
2023-05-02T19:36:25.836Z,98313.06
2023-05-02T19:38:53.084Z,98314.66
2023-05-02T19:41:21.509Z,98312.47
2023-05-02T19:43:48.328Z,98319.00
2023-05-02T19:46:15.607Z,98321.69
2023-05-02T19:48:42.643Z,98316.31
2023-05-02T19:51:09.581Z,98320.09
2023-05-02T19:53:37.173Z,98314.97
2023-05-02T19:56:04.789Z,98320.94
2023-05-02T19:58:32.944Z,98323.63
2023-05-02T20:00:59.762Z,98322.81
2023-05-02T20:03:26.784Z,98326.06
2023-05-02T20:05:53.641Z,98325.53
2023-05-02T20:08:21.629Z,98325.25
2023-05-02T20:10:50.313Z,98333.38
2023-05-02T20:13:17.104Z,98336.06
2023-05-02T20:15:45.409Z,98333.63
2023-05-02T20:18:12.289Z,98336.03
2023-05-02T20:20:39.141Z,98336.88
2023-05-02T20:23:06.054Z,98332.28
2023-05-02T20:25:32.893Z,98337.94
2023-05-02T20:27:59.673Z,98336.03
2023-05-02T20:30:26.542Z,98348.75
2023-05-02T20:32:55.726Z,98338.75
2023-05-02T20:35:22.652Z,98345.50
2023-05-02T20:37:49.453Z,98350.13
2023-05-02T20:40:16.492Z,98357.13
2023-05-02T20:42:43.317Z,98355.78
2023-05-02T20:45:10.487Z,98351.75
2023-05-02T20:47:37.423Z,98353.34
2023-05-02T20:50:06.489Z,98351.50
2023-05-02T20:52:33.289Z,98353.63
2023-05-02T20:55:00.285Z,98346.63
2023-05-02T20:57:27.203Z,98348.75
2023-05-02T20:59:53.999Z,98349.31
2023-05-02T21:02:20.817Z,98341.19
2023-05-02T21:04:47.609Z,98342.03
2023-05-02T21:07:15.778Z,98349.84
2023-05-02T21:09:42.704Z,98354.97
2023-05-02T21:12:09.791Z,98368.22
2023-05-02T21:14:36.609Z,98360.09
2023-05-02T21:17:03.466Z,98363.38
2023-05-02T21:19:30.280Z,98365.78
2023-05-02T21:21:57.079Z,98365.78
2023-05-02T21:24:25.260Z,98369.03
2023-05-02T21:26:52.099Z,98365.50
2023-05-02T21:29:18.906Z,98366.06
2023-05-02T21:31:45.728Z,98369.56
2023-05-02T21:34:12.618Z,98370.63
2023-05-02T21:36:39.516Z,98369.84
2023-05-02T21:39:06.405Z,98369.31
2023-05-02T21:41:34.609Z,98377.38
2023-05-02T21:44:01.403Z,98367.94
2023-05-02T21:46:28.289Z,98366.59
2023-05-02T21:48:55.117Z,98369.56
2023-05-02T21:51:21.919Z,98370.13
2023-05-02T21:53:48.892Z,98369.56
2023-05-02T21:56:15.689Z,98369.81
2023-05-02T21:58:43.835Z,98364.72
2023-05-02T22:01:10.678Z,98373.06
2023-05-02T22:03:37.566Z,98371.44
2023-05-02T22:06:04.640Z,98374.97
2023-05-02T22:08:31.786Z,98376.59
2023-05-02T22:10:58.668Z,98369.00
2023-05-02T22:13:25.479Z,98375.50
2023-05-02T22:15:53.975Z,98375.25
2023-05-02T22:18:20.793Z,98378.19
2023-05-02T22:20:47.588Z,98379.28
2023-05-02T22:23:14.648Z,98385.50
2023-05-02T22:25:42.542Z,98379.84
2023-05-02T22:28:09.429Z,98379.53
2023-05-02T22:30:36.378Z,98388.19
2023-05-02T22:33:04.605Z,98384.94
2023-05-02T22:35:31.423Z,98378.75
2023-05-02T22:37:58.979Z,98381.44
2023-05-02T22:40:25.889Z,98379.56
2023-05-02T22:42:52.680Z,98376.59
2023-05-02T22:45:19.509Z,98376.88
2023-05-02T22:47:46.372Z,98378.19
2023-05-02T22:50:14.621Z,98383.31
2023-05-02T22:52:41.513Z,98378.75
2023-05-02T22:55:08.850Z,98381.69
2023-05-02T22:57:35.640Z,98385.22
2023-05-02T23:00:03.779Z,98388.19
2023-05-02T23:02:30.909Z,98385.50
2023-05-02T23:04:57.788Z,98389.56
2023-05-02T23:07:26.013Z,98385.22
2023-05-02T23:09:52.863Z,98388.19
2023-05-02T23:12:19.684Z,98383.88
2023-05-02T23:14:46.512Z,98383.59
2023-05-02T23:17:13.341Z,98384.44
2023-05-02T23:19:40.268Z,98383.88
2023-05-02T23:22:07.270Z,98386.59
2023-05-02T23:24:35.453Z,98379.56
2023-05-02T23:27:02.263Z,98381.44
2023-05-02T23:29:29.107Z,98379.56
2023-05-02T23:31:56.005Z,98379.81
2023-05-02T23:34:23.021Z,98376.31
2023-05-02T23:36:51.151Z,98377.66
2023-05-02T23:39:18.033Z,98384.16
2023-05-02T23:41:46.267Z,98376.53
2023-05-02T23:44:13.132Z,98384.94
2023-05-02T23:46:40.052Z,98375.75
2023-05-02T23:49:06.870Z,98384.41
2023-05-02T23:51:33.705Z,98381.44
2023-05-02T23:54:00.528Z,98379.28
2023-05-02T23:56:27.336Z,98380.91
2023-05-02T23:58:55.529Z,98380.91
